sensor_id;sensor_type;location;lat;lon;timestamp;pressure;altitude;pressure_sealevel;temperature;humidity
18918;BME280;9591;52.742;13.650;2023-02-04T00:00:58;101750.59;;;3.38;100.00
18918;BME280;9591;52.742;13.650;2023-02-04T00:03:45;101767.19;;;3.39;100.00
18918;BME280;9591;52.742;13.650;2023-02-04T00:06:31;101787.16;;;3.31;100.00
18918;BME280;9591;52.742;13.650;2023-02-04T00:09:18;101783.66;;;3.30;100.00
18918;BME280;9591;52.742;13.650;2023-02-04T00:12:05;101802.78;;;3.24;100.00
18918;BME280;9591;52.742;13.650;2023-02-04T00:14:56;101815.88;;;3.24;100.00
18918;BME280;9591;52.742;13.650;2023-02-04T00:17:45;101815.88;;;3.24;100.00
18918;BME280;9591;52.742;13.650;2023-02-04T00:20:34;101844.63;;;3.21;100.00
18918;BME280;9591;52.742;13.650;2023-02-04T00:23:22;101863.56;;;3.05;100.00
18918;BME280;9591;52.742;13.650;2023-02-04T00:26:10;101866.13;;;3.02;100.00
18918;BME280;9591;52.742;13.650;2023-02-04T00:28:58;101879.22;;;3.02;100.00
18918;BME280;9591;52.742;13.650;2023-02-04T00:31:48;101880.03;;;3.00;100.00
18918;BME280;9591;52.742;13.650;2023-02-04T00:34:36;101887.78;;;2.93;100.00
18918;BME280;9591;52.742;13.650;2023-02-04T00:37:25;101895.59;;;2.92;100.00
18918;BME280;9591;52.742;13.650;2023-02-04T00:40:12;101912.06;;;2.85;100.00
18918;BME280;9591;52.742;13.650;2023-02-04T00:42:59;101920.88;;;2.90;100.00
18918;BME280;9591;52.742;13.650;2023-02-04T00:45:48;101940.75;;;2.80;100.00
18918;BME280;9591;52.742;13.650;2023-02-04T00:48:36;101946.75;;;2.75;100.00
18918;BME280;9591;52.742;13.650;2023-02-04T00:51:25;101957.16;;;2.72;100.00
18918;BME280;9591;52.742;13.650;2023-02-04T00:54:13;101967.69;;;2.75;100.00
18918;BME280;9591;52.742;13.650;2023-02-04T00:57:04;101975.56;;;2.76;100.00
18918;BME280;9591;52.742;13.650;2023-02-04T00:59:52;101995.50;;;2.70;100.00
18918;BME280;9591;52.742;13.650;2023-02-04T01:02:40;102005.03;;;2.68;100.00
18918;BME280;9591;52.742;13.650;2023-02-04T01:05:30;102010.16;;;2.61;100.00
18918;BME280;9591;52.742;13.650;2023-02-04T01:08:17;102033.03;;;2.72;100.00
18918;BME280;9591;52.742;13.650;2023-02-04T01:11:04;102049.53;;;2.68;100.00
18918;BME280;9591;52.742;13.650;2023-02-04T01:13:51;102057.97;;;2.53;100.00
18918;BME280;9591;52.742;13.650;2023-02-04T01:16:38;102060.47;;;2.48;100.00
18918;BME280;9591;52.742;13.650;2023-02-04T01:19:25;102074.09;;;2.34;100.00
18918;BME280;9591;52.742;13.650;2023-02-04T01:22:13;102073.25;;;2.35;100.00
18918;BME280;9591;52.742;13.650;2023-02-04T01:25:00;102086.00;;;2.21;100.00
18918;BME280;9591;52.742;13.650;2023-02-04T01:27:59;102059.19;;;1.93;100.00
18918;BME280;9591;52.742;13.650;2023-02-04T01:30:49;102101.59;;;2.18;100.00
18918;BME280;9591;52.742;13.650;2023-02-04T01:33:37;102102.59;;;2.23;100.00
18918;BME280;9591;52.742;13.650;2023-02-04T01:36:24;102112.28;;;2.27;100.00
18918;BME280;9591;52.742;13.650;2023-02-04T01:39:12;102111.19;;;2.17;100.00
18918;BME280;9591;52.742;13.650;2023-02-04T01:42:00;102122.63;;;2.22;100.00
18918;BME280;9591;52.742;13.650;2023-02-04T01:44:47;102131.50;;;2.29;100.00
18918;BME280;9591;52.742;13.650;2023-02-04T01:47:34;102143.94;;;2.39;100.00
18918;BME280;9591;52.742;13.650;2023-02-04T01:50:23;102146.47;;;2.35;100.00
18918;BME280;9591;52.742;13.650;2023-02-04T01:53:10;102151.75;;;2.38;100.00
18918;BME280;9591;52.742;13.650;2023-02-04T01:55:58;102167.31;;;2.32;100.00
18918;BME280;9591;52.742;13.650;2023-02-04T01:58:46;102167.38;;;2.35;100.00
18918;BME280;9591;52.742;13.650;2023-02-04T02:01:34;102183.00;;;2.32;100.00
18918;BME280;9591;52.742;13.650;2023-02-04T02:04:29;102135.91;;;1.95;100.00
18918;BME280;9591;52.742;13.650;2023-02-04T02:07:19;102198.03;;;2.40;100.00
18918;BME280;9591;52.742;13.650;2023-02-04T02:10:08;102199.34;;;2.23;100.00
18918;BME280;9591;52.742;13.650;2023-02-04T02:12:57;102214.34;;;2.30;100.00
18918;BME280;9591;52.742;13.650;2023-02-04T02:15:44;102214.75;;;2.12;100.00
18918;BME280;9591;52.742;13.650;2023-02-04T02:18:32;102231.84;;;2.00;100.00
18918;BME280;9591;52.742;13.650;2023-02-04T02:21:25;102243.91;;;1.94;100.00
18918;BME280;9591;52.742;13.650;2023-02-04T02:24:26;102258.84;;;2.00;100.00
18918;BME280;9591;52.742;13.650;2023-02-04T02:27:12;102262.91;;;1.89;100.00
18918;BME280;9591;52.742;13.650;2023-02-04T02:29:59;102266.81;;;1.72;100.00
18918;BME280;9591;52.742;13.650;2023-02-04T02:32:48;102281.31;;;1.62;100.00
18918;BME280;9591;52.742;13.650;2023-02-04T02:35:37;102287.31;;;1.58;100.00
18918;BME280;9591;52.742;13.650;2023-02-04T02:38:24;102290.34;;;1.43;100.00
18918;BME280;9591;52.742;13.650;2023-02-04T02:41:12;102293.94;;;1.47;100.00
18918;BME280;9591;52.742;13.650;2023-02-04T02:43:59;102298.66;;;1.30;100.00
18918;BME280;9591;52.742;13.650;2023-02-04T02:46:46;102307.41;;;1.32;100.00
18918;BME280;9591;52.742;13.650;2023-02-04T02:49:32;102318.56;;;1.26;100.00
18918;BME280;9591;52.742;13.650;2023-02-04T02:52:21;102327.63;;;1.11;100.00
18918;BME280;9591;52.742;13.650;2023-02-04T02:55:13;102338.31;;;1.18;100.00
18918;BME280;9591;52.742;13.650;2023-02-04T02:58:03;102340.31;;;1.27;100.00
18918;BME280;9591;52.742;13.650;2023-02-04T03:00:50;102341.66;;;1.14;100.00
18918;BME280;9591;52.742;13.650;2023-02-04T03:03:41;102354.50;;;1.08;100.00
18918;BME280;9591;52.742;13.650;2023-02-04T03:06:28;102355.06;;;0.98;100.00
18918;BME280;9591;52.742;13.650;2023-02-04T03:09:15;102337.88;;;0.78;100.00
18918;BME280;9591;52.742;13.650;2023-02-04T03:12:05;102365.06;;;0.84;100.00
18918;BME280;9591;52.742;13.650;2023-02-04T03:14:54;102365.91;;;0.83;100.00
18918;BME280;9591;52.742;13.650;2023-02-04T03:17:41;102375.81;;;0.95;100.00
18918;BME280;9591;52.742;13.650;2023-02-04T03:20:30;102380.66;;;0.83;100.00
18918;BME280;9591;52.742;13.650;2023-02-04T03:23:18;102391.06;;;0.81;100.00
18918;BME280;9591;52.742;13.650;2023-02-04T03:26:06;102405.91;;;0.84;100.00
18918;BME280;9591;52.742;13.650;2023-02-04T03:28:53;102371.94;;;0.57;100.00
18918;BME280;9591;52.742;13.650;2023-02-04T03:31:43;102417.56;;;0.95;100.00
18918;BME280;9591;52.742;13.650;2023-02-04T03:34:30;102426.97;;;0.90;100.00
18918;BME280;9591;52.742;13.650;2023-02-04T03:37:16;102436.47;;;0.88;100.00
18918;BME280;9591;52.742;13.650;2023-02-04T03:40:04;102456.72;;;0.95;100.00
18918;BME280;9591;52.742;13.650;2023-02-04T03:42:50;102463.25;;;0.82;100.00
18918;BME280;9591;52.742;13.650;2023-02-04T03:45:37;102466.25;;;0.94;100.00
18918;BME280;9591;52.742;13.650;2023-02-04T03:48:32;102475.19;;;1.01;100.00
18918;BME280;9591;52.742;13.650;2023-02-04T03:51:18;102484.13;;;1.08;100.00
18918;BME280;9591;52.742;13.650;2023-02-04T03:54:05;102475.88;;;0.95;100.00
18918;BME280;9591;52.742;13.650;2023-02-04T03:56:51;102500.50;;;1.04;100.00
18918;BME280;9591;52.742;13.650;2023-02-04T03:59:38;102502.66;;;1.15;100.00
18918;BME280;9591;52.742;13.650;2023-02-04T04:02:25;102513.19;;;1.18;100.00
18918;BME280;9591;52.742;13.650;2023-02-04T04:05:13;102512.88;;;1.09;100.00
18918;BME280;9591;52.742;13.650;2023-02-04T04:08:00;102530.91;;;1.27;100.00
18918;BME280;9591;52.742;13.650;2023-02-04T04:10:47;102537.41;;;1.14;100.00
18918;BME280;9591;52.742;13.650;2023-02-04T04:13:34;102550.53;;;1.16;100.00
18918;BME280;9591;52.742;13.650;2023-02-04T04:16:21;102562.06;;;1.22;100.00
18918;BME280;9591;52.742;13.650;2023-02-04T04:19:07;102566.75;;;1.07;100.00
18918;BME280;9591;52.742;13.650;2023-02-04T04:21:55;102579.41;;;1.20;100.00
18918;BME280;9591;52.742;13.650;2023-02-04T04:24:42;102582.00;;;1.20;100.00
18918;BME280;9591;52.742;13.650;2023-02-04T04:27:29;102592.41;;;1.19;100.00
18918;BME280;9591;52.742;13.650;2023-02-04T04:30:16;102589.78;;;1.19;100.00
18918;BME280;9591;52.742;13.650;2023-02-04T04:33:03;102598.19;;;1.10;100.00
18918;BME280;9591;52.742;13.650;2023-02-04T04:35:50;102604.63;;;0.96;100.00
18918;BME280;9591;52.742;13.650;2023-02-04T04:38:38;102613.16;;;0.92;100.00
18918;BME280;9591;52.742;13.650;2023-02-04T04:41:25;102618.72;;;1.01;100.00
18918;BME280;9591;52.742;13.650;2023-02-04T04:44:11;102627.22;;;0.95;100.00
18918;BME280;9591;52.742;13.650;2023-02-04T04:46:58;102628.44;;;0.81;100.00
18918;BME280;9591;52.742;13.650;2023-02-04T04:49:45;102628.03;;;0.94;100.00
18918;BME280;9591;52.742;13.650;2023-02-04T04:52:32;102639.31;;;0.93;100.00
18918;BME280;9591;52.742;13.650;2023-02-04T04:55:20;102644.94;;;1.04;100.00
18918;BME280;9591;52.742;13.650;2023-02-04T04:58:08;102650.16;;;1.04;100.00
18918;BME280;9591;52.742;13.650;2023-02-04T05:00:57;102666.69;;;1.05;100.00
18918;BME280;9591;52.742;13.650;2023-02-04T05:03:47;102671.91;;;1.05;100.00
18918;BME280;9591;52.742;13.650;2023-02-04T05:06:33;102679.75;;;1.05;100.00
18918;BME280;9591;52.742;13.650;2023-02-04T05:09:20;102677.69;;;0.96;100.00
18918;BME280;9591;52.742;13.650;2023-02-04T05:12:08;102692.38;;;0.94;100.00
18918;BME280;9591;52.742;13.650;2023-02-04T05:14:55;102700.22;;;0.94;100.00
18918;BME280;9591;52.742;13.650;2023-02-04T05:17:42;102702.00;;;0.95;100.00
18918;BME280;9591;52.742;13.650;2023-02-04T05:20:29;102702.94;;;0.97;100.00
18918;BME280;9591;52.742;13.650;2023-02-04T05:23:16;102716.25;;;0.81;100.00
18918;BME280;9591;52.742;13.650;2023-02-04T05:26:03;102713.31;;;0.95;100.00
18918;BME280;9591;52.742;13.650;2023-02-04T05:28:51;102730.59;;;0.92;100.00
18918;BME280;9591;52.742;13.650;2023-02-04T05:31:37;102738.53;;;0.95;100.00
18918;BME280;9591;52.742;13.650;2023-02-04T05:34:24;102738.28;;;0.89;100.00
18918;BME280;9591;52.742;13.650;2023-02-04T05:37:11;102749.16;;;0.77;100.00
18918;BME280;9591;52.742;13.650;2023-02-04T05:39:59;102759.09;;;0.86;100.00
18918;BME280;9591;52.742;13.650;2023-02-04T05:42:46;102760.25;;;0.72;100.00
18918;BME280;9591;52.742;13.650;2023-02-04T05:45:34;102772.72;;;0.58;100.00
18918;BME280;9591;52.742;13.650;2023-02-04T05:48:21;102779.22;;;0.68;100.00
18918;BME280;9591;52.742;13.650;2023-02-04T05:51:08;102782.28;;;0.57;100.00
18918;BME280;9591;52.742;13.650;2023-02-04T05:53:55;102788.50;;;0.61;100.00
18918;BME280;9591;52.742;13.650;2023-02-04T05:56:42;102785.63;;;0.34;100.00
18918;BME280;9591;52.742;13.650;2023-02-04T05:59:29;102793.47;;;0.34;100.00
18918;BME280;9591;52.742;13.650;2023-02-04T06:02:18;102794.47;;;0.38;100.00
18918;BME280;9591;52.742;13.650;2023-02-04T06:05:07;102809.44;;;0.42;100.00
18918;BME280;9591;52.742;13.650;2023-02-04T06:07:53;102820.38;;;0.54;100.00
18918;BME280;9591;52.742;13.650;2023-02-04T06:10:40;102825.38;;;0.28;100.00
18918;BME280;9591;52.742;13.650;2023-02-04T06:13:27;102837.19;;;0.20;100.00
18918;BME280;9591;52.742;13.650;2023-02-04T06:16:14;102836.34;;;0.21;100.00
18918;BME280;9591;52.742;13.650;2023-02-04T06:19:02;102848.28;;;0.16;100.00
18918;BME280;9591;52.742;13.650;2023-02-04T06:21:48;102844.50;;;0.29;100.00
18918;BME280;9591;52.742;13.650;2023-02-04T06:24:35;102845.63;;;0.15;100.00
18918;BME280;9591;52.742;13.650;2023-02-04T06:27:22;102848.72;;;0.06;100.00
18918;BME280;9591;52.742;13.650;2023-02-04T06:30:10;102849.88;;;0.13;100.00
18918;BME280;9591;52.742;13.650;2023-02-04T06:32:57;102851.91;;;-0.01;100.00
18918;BME280;9591;52.742;13.650;2023-02-04T06:35:45;102852.53;;;-0.07;100.00
18918;BME280;9591;52.742;13.650;2023-02-04T06:38:31;102851.97;;;-0.19;100.00
18918;BME280;9591;52.742;13.650;2023-02-04T06:41:18;102869.09;;;-0.24;100.00
18918;BME280;9591;52.742;13.650;2023-02-04T06:44:05;102867.22;;;0.12;100.00
18918;BME280;9591;52.742;13.650;2023-02-04T06:46:52;102867.16;;;0.30;100.00
18918;BME280;9591;52.742;13.650;2023-02-04T06:49:39;102870.78;;;0.14;100.00
18918;BME280;9591;52.742;13.650;2023-02-04T06:52:27;102877.59;;;0.11;100.00
18918;BME280;9591;52.742;13.650;2023-02-04T06:55:15;102878.31;;;-0.13;100.00
18918;BME280;9591;52.742;13.650;2023-02-04T06:58:01;102871.72;;;-0.05;100.00
18918;BME280;9591;52.742;13.650;2023-02-04T07:00:48;102875.84;;;-0.10;100.00
18918;BME280;9591;52.742;13.650;2023-02-04T07:03:35;102881.69;;;0.06;100.00
18918;BME280;9591;52.742;13.650;2023-02-04T07:06:22;102890.19;;;0.21;100.00
18918;BME280;9591;52.742;13.650;2023-02-04T07:09:10;102894.59;;;0.22;100.00
18918;BME280;9591;52.742;13.650;2023-02-04T07:11:57;102898.84;;;0.00;100.00
18918;BME280;9591;52.742;13.650;2023-02-04T07:14:44;102897.41;;;0.07;100.00
18918;BME280;9591;52.742;13.650;2023-02-04T07:17:30;102901.72;;;0.07;100.00
18918;BME280;9591;52.742;13.650;2023-02-04T07:20:17;102908.94;;;0.12;100.00
18918;BME280;9591;52.742;13.650;2023-02-04T07:23:04;102906.81;;;0.23;100.00
18918;BME280;9591;52.742;13.650;2023-02-04T07:25:53;102783.22;;;-0.42;100.00
18918;BME280;9591;52.742;13.650;2023-02-04T07:28:40;102916.94;;;0.36;100.00
18918;BME280;9591;52.742;13.650;2023-02-04T07:31:28;102921.75;;;0.46;100.00
18918;BME280;9591;52.742;13.650;2023-02-04T07:34:14;102927.28;;;0.54;100.00
18918;BME280;9591;52.742;13.650;2023-02-04T07:37:01;102919.41;;;0.33;100.00
18918;BME280;9591;52.742;13.650;2023-02-04T07:39:48;102934.84;;;0.48;100.00
18918;BME280;9591;52.742;13.650;2023-02-04T07:42:36;102939.25;;;0.49;100.00
18918;BME280;9591;52.742;13.650;2023-02-04T07:45:28;102942.66;;;0.48;100.00
18918;BME280;9591;52.742;13.650;2023-02-04T07:48:15;102954.53;;;0.60;100.00
18918;BME280;9591;52.742;13.650;2023-02-04T07:51:02;102964.47;;;0.69;100.00
18918;BME280;9591;52.742;13.650;2023-02-04T07:53:49;102965.31;;;0.68;100.00
18918;BME280;9591;52.742;13.650;2023-02-04T07:56:35;102973.34;;;0.73;100.00
18918;BME280;9591;52.742;13.650;2023-02-04T07:59:24;102990.22;;;0.81;100.00
18918;BME280;9591;52.742;13.650;2023-02-04T08:02:10;102990.72;;;0.93;100.00
18918;BME280;9591;52.742;13.650;2023-02-04T08:04:57;103002.50;;;1.04;100.00
18918;BME280;9591;52.742;13.650;2023-02-04T08:07:44;103010.41;;;1.06;100.00
18918;BME280;9591;52.742;13.650;2023-02-04T08:10:31;103011.53;;;1.12;100.00
18918;BME280;9591;52.742;13.650;2023-02-04T08:13:18;103017.34;;;1.05;100.00
18918;BME280;9591;52.742;13.650;2023-02-04T08:16:06;103021.84;;;1.09;100.00
18918;BME280;9591;52.742;13.650;2023-02-04T08:18:56;103028.09;;;1.13;100.00
18918;BME280;9591;52.742;13.650;2023-02-04T08:21:42;103034.78;;;1.06;100.00
18918;BME280;9591;52.742;13.650;2023-02-04T08:24:29;103037.06;;;0.98;100.00
18918;BME280;9591;52.742;13.650;2023-02-04T08:27:16;103042.25;;;1.18;100.00
18918;BME280;9591;52.742;13.650;2023-02-04T08:30:04;103046.69;;;1.20;100.00
18918;BME280;9591;52.742;13.650;2023-02-04T08:32:52;103039.06;;;1.25;100.00
18918;BME280;9591;52.742;13.650;2023-02-04T08:35:39;103042.56;;;1.25;100.00
18918;BME280;9591;52.742;13.650;2023-02-04T08:38:26;103041.94;;;1.31;100.00
18918;BME280;9591;52.742;13.650;2023-02-04T08:41:13;103042.97;;;1.35;100.00
18918;BME280;9591;52.742;13.650;2023-02-04T08:44:00;103043.09;;;1.38;100.00
18918;BME280;9591;52.742;13.650;2023-02-04T08:46:47;103051.75;;;1.37;100.00
18918;BME280;9591;52.742;13.650;2023-02-04T08:49:35;103042.97;;;1.55;100.00
18918;BME280;9591;52.742;13.650;2023-02-04T08:52:21;103039.78;;;1.62;100.00
18918;BME280;9591;52.742;13.650;2023-02-04T08:55:08;103053.16;;;1.70;100.00
18918;BME280;9591;52.742;13.650;2023-02-04T08:57:55;103049.34;;;1.62;100.00
18918;BME280;9591;52.742;13.650;2023-02-04T09:00:43;103069.47;;;1.64;100.00
18918;BME280;9591;52.742;13.650;2023-02-04T09:03:30;103060.88;;;1.67;100.00
18918;BME280;9591;52.742;13.650;2023-02-04T09:06:18;103060.03;;;1.68;100.00
18918;BME280;9591;52.742;13.650;2023-02-04T09:09:04;103066.69;;;1.82;100.00
18918;BME280;9591;52.742;13.650;2023-02-04T09:11:51;103067.56;;;1.83;100.00
18918;BME280;9591;52.742;13.650;2023-02-04T09:14:38;103065.16;;;1.87;100.00
18918;BME280;9591;52.742;13.650;2023-02-04T09:17:25;103073.91;;;2.10;100.00
18918;BME280;9591;52.742;13.650;2023-02-04T09:20:12;103084.91;;;2.24;100.00
18918;BME280;9591;52.742;13.650;2023-02-04T09:23:00;103093.84;;;2.29;100.00
18918;BME280;9591;52.742;13.650;2023-02-04T09:25:47;103094.91;;;2.34;100.00
18918;BME280;9591;52.742;13.650;2023-02-04T09:28:34;103098.75;;;2.21;100.00
18918;BME280;9591;52.742;13.650;2023-02-04T09:31:20;103109.28;;;2.45;100.00
18918;BME280;9591;52.742;13.650;2023-02-04T09:34:07;103112.03;;;2.48;100.00
18918;BME280;9591;52.742;13.650;2023-02-04T09:36:54;103113.16;;;2.55;100.00
18918;BME280;9591;52.742;13.650;2023-02-04T09:39:42;103115.84;;;2.80;100.00
18918;BME280;9591;52.742;13.650;2023-02-04T09:42:29;103119.91;;;2.96;100.00
18918;BME280;9591;52.742;13.650;2023-02-04T09:45:17;103120.25;;;3.05;100.00
18918;BME280;9591;52.742;13.650;2023-02-04T09:48:05;103106.78;;;2.94;100.00
18918;BME280;9591;52.742;13.650;2023-02-04T09:51:02;103133.78;;;3.17;100.00
18918;BME280;9591;52.742;13.650;2023-02-04T09:53:50;103122.09;;;3.08;100.00
18918;BME280;9591;52.742;13.650;2023-02-04T09:56:40;103130.84;;;3.32;100.00
18918;BME280;9591;52.742;13.650;2023-02-04T09:59:27;103135.47;;;3.39;100.00
18918;BME280;9591;52.742;13.650;2023-02-04T10:02:20;103138.19;;;3.42;100.00
18918;BME280;9591;52.742;13.650;2023-02-04T10:05:12;103154.03;;;3.47;100.00
18918;BME280;9591;52.742;13.650;2023-02-04T10:08:00;103139.69;;;3.61;100.00
18918;BME280;9591;52.742;13.650;2023-02-04T10:10:47;103144.97;;;3.62;100.00
18918;BME280;9591;52.742;13.650;2023-02-04T10:13:40;103148.22;;;3.55;100.00
18918;BME280;9591;52.742;13.650;2023-02-04T10:16:29;103141.88;;;3.49;100.00
18918;BME280;9591;52.742;13.650;2023-02-04T10:19:17;103144.78;;;3.07;100.00
18918;BME280;9591;52.742;13.650;2023-02-04T10:22:10;103149.63;;;3.20;100.00
18918;BME280;9591;52.742;13.650;2023-02-04T10:25:01;103155.66;;;3.18;100.00
18918;BME280;9591;52.742;13.650;2023-02-04T10:27:49;103165.50;;;3.25;100.00
18918;BME280;9591;52.742;13.650;2023-02-04T10:30:41;103164.69;;;3.26;100.00
18918;BME280;9591;52.742;13.650;2023-02-04T10:33:29;103161.38;;;3.32;100.00
18918;BME280;9591;52.742;13.650;2023-02-04T10:36:16;103171.81;;;3.30;100.00
18918;BME280;9591;52.742;13.650;2023-02-04T10:39:09;103160.66;;;3.36;100.00
18918;BME280;9591;52.742;13.650;2023-02-04T10:41:58;103155.34;;;3.59;100.00
18918;BME280;9591;52.742;13.650;2023-02-04T10:44:46;103161.91;;;3.72;100.00
18918;BME280;9591;52.742;13.650;2023-02-04T10:47:34;103164.81;;;3.80;100.00
18918;BME280;9591;52.742;13.650;2023-02-04T10:50:22;103150.06;;;3.83;100.00
18918;BME280;9591;52.742;13.650;2023-02-04T10:53:10;103159.72;;;3.84;100.00
18918;BME280;9591;52.742;13.650;2023-02-04T10:56:19;103159.72;;;3.59;100.00
18918;BME280;9591;52.742;13.650;2023-02-04T10:59:16;103161.91;;;3.47;100.00
18918;BME280;9591;52.742;13.650;2023-02-04T11:02:30;103160.53;;;3.33;100.00
18918;BME280;9591;52.742;13.650;2023-02-04T11:05:21;103175.66;;;3.40;100.00
18918;BME280;9591;52.742;13.650;2023-02-04T11:08:20;103167.19;;;3.48;100.00
18918;BME280;9591;52.742;13.650;2023-02-04T11:11:08;103177.09;;;3.57;100.00
18918;BME280;9591;52.742;13.650;2023-02-04T11:14:00;103167.69;;;3.62;100.00
18918;BME280;9591;52.742;13.650;2023-02-04T11:16:48;103170.94;;;4.06;100.00
18918;BME280;9591;52.742;13.650;2023-02-04T11:19:36;103179.75;;;4.08;100.00
18918;BME280;9591;52.742;13.650;2023-02-04T11:22:36;103188.25;;;3.75;100.00
18918;BME280;9591;52.742;13.650;2023-02-04T11:25:30;103187.97;;;3.93;100.00
18918;BME280;9591;52.742;13.650;2023-02-04T11:28:24;103119.50;;;3.84;100.00
18918;BME280;9591;52.742;13.650;2023-02-04T11:31:22;103185.84;;;4.35;100.00
18918;BME280;9591;52.742;13.650;2023-02-04T11:34:25;103193.56;;;4.29;100.00
18918;BME280;9591;52.742;13.650;2023-02-04T11:37:15;103203.84;;;4.23;100.00
18918;BME280;9591;52.742;13.650;2023-02-04T11:40:20;103134.03;;;3.74;100.00
18918;BME280;9591;52.742;13.650;2023-02-04T11:43:11;103170.09;;;3.56;100.00
18918;BME280;9591;52.742;13.650;2023-02-04T11:46:01;103203.00;;;3.48;100.00
18918;BME280;9591;52.742;13.650;2023-02-04T11:48:51;103209.63;;;3.62;100.00
18918;BME280;9591;52.742;13.650;2023-02-04T11:51:38;103219.03;;;3.57;100.00
18918;BME280;9591;52.742;13.650;2023-02-04T11:54:25;103220.41;;;3.46;100.00
18918;BME280;9591;52.742;13.650;2023-02-04T11:57:14;103222.16;;;3.47;100.00
18918;BME280;9591;52.742;13.650;2023-02-04T12:00:00;103215.25;;;3.49;100.00
18918;BME280;9591;52.742;13.650;2023-02-04T12:02:50;103213.47;;;3.48;100.00
18918;BME280;9591;52.742;13.650;2023-02-04T12:05:42;103204.34;;;3.37;100.00
18918;BME280;9591;52.742;13.650;2023-02-04T12:08:32;103224.09;;;3.27;100.00
18918;BME280;9591;52.742;13.650;2023-02-04T12:11:27;103220.41;;;3.22;100.00
18918;BME280;9591;52.742;13.650;2023-02-04T12:14:18;103222.38;;;3.05;100.00
18918;BME280;9591;52.742;13.650;2023-02-04T12:17:14;103218.81;;;2.81;100.00
18918;BME280;9591;52.742;13.650;2023-02-04T12:20:02;103220.91;;;2.89;100.00
18918;BME280;9591;52.742;13.650;2023-02-04T12:22:49;103218.63;;;3.21;100.00
18918;BME280;9591;52.742;13.650;2023-02-04T12:25:41;103216.28;;;3.28;100.00
18918;BME280;9591;52.742;13.650;2023-02-04T12:28:28;103224.59;;;3.41;100.00
18918;BME280;9591;52.742;13.650;2023-02-04T12:31:16;103230.91;;;3.46;100.00
18918;BME280;9591;52.742;13.650;2023-02-04T12:34:03;103240.94;;;3.34;100.00
18918;BME280;9591;52.742;13.650;2023-02-04T12:36:50;103238.06;;;3.27;100.00
18918;BME280;9591;52.742;13.650;2023-02-04T12:39:37;103234.22;;;3.18;100.00
18918;BME280;9591;52.742;13.650;2023-02-04T12:42:23;103240.00;;;3.09;100.00
18918;BME280;9591;52.742;13.650;2023-02-04T12:45:11;103241.06;;;2.92;100.00
18918;BME280;9591;52.742;13.650;2023-02-04T12:47:59;103231.91;;;3.03;100.00
18918;BME280;9591;52.742;13.650;2023-02-04T12:50:46;103238.84;;;3.25;100.00
18918;BME280;9591;52.742;13.650;2023-02-04T12:53:33;103224.47;;;3.38;100.00
18918;BME280;9591;52.742;13.650;2023-02-04T12:56:20;103223.94;;;3.72;100.00
18918;BME280;9591;52.742;13.650;2023-02-04T12:59:08;103229.03;;;3.92;100.00
18918;BME280;9591;52.742;13.650;2023-02-04T13:01:55;103242.44;;;3.76;100.00
18918;BME280;9591;52.742;13.650;2023-02-04T13:04:44;103240.56;;;3.48;100.00
18918;BME280;9591;52.742;13.650;2023-02-04T13:07:30;103243.78;;;3.40;100.00
18918;BME280;9591;52.742;13.650;2023-02-04T13:10:18;103243.88;;;3.43;100.00
18918;BME280;9591;52.742;13.650;2023-02-04T13:13:07;103247.53;;;3.24;100.00
18918;BME280;9591;52.742;13.650;2023-02-04T13:15:53;103248.16;;;3.17;100.00
18918;BME280;9591;52.742;13.650;2023-02-04T13:18:40;103249.03;;;3.17;100.00
18918;BME280;9591;52.742;13.650;2023-02-04T13:21:29;103249.63;;;3.33;100.00
18918;BME280;9591;52.742;13.650;2023-02-04T13:24:16;103239.91;;;3.30;100.00
18918;BME280;9591;52.742;13.650;2023-02-04T13:27:03;103246.50;;;3.43;100.00
18918;BME280;9591;52.742;13.650;2023-02-04T13:29:50;103239.03;;;3.29;100.00
18918;BME280;9591;52.742;13.650;2023-02-04T13:32:36;103254.13;;;3.37;100.00
18918;BME280;9591;52.742;13.650;2023-02-04T13:35:23;103262.00;;;3.37;100.00
18918;BME280;9591;52.742;13.650;2023-02-04T13:38:11;103263.97;;;3.42;98.43
18918;BME280;9591;52.742;13.650;2023-02-04T13:40:58;103275.44;;;3.46;100.00
18918;BME280;9591;52.742;13.650;2023-02-04T13:43:45;103276.59;;;3.30;98.17
18918;BME280;9591;52.742;13.650;2023-02-04T13:46:32;103268.13;;;3.37;95.98
18918;BME280;9591;52.742;13.650;2023-02-04T13:49:19;103276.06;;;3.39;98.05
18918;BME280;9591;52.742;13.650;2023-02-04T13:52:05;103259.91;;;3.52;99.86
18918;BME280;9591;52.742;13.650;2023-02-04T13:54:53;103275.59;;;3.50;100.00
18918;BME280;9591;52.742;13.650;2023-02-04T13:57:41;103267.59;;;3.46;99.00
18918;BME280;9591;52.742;13.650;2023-02-04T14:00:27;103271.41;;;3.32;100.00
18918;BME280;9591;52.742;13.650;2023-02-04T14:03:14;103284.41;;;3.06;100.00
18918;BME280;9591;52.742;13.650;2023-02-04T14:06:01;103289.50;;;3.03;100.00
18918;BME280;9591;52.742;13.650;2023-02-04T14:08:48;103292.28;;;2.85;100.00
18918;BME280;9591;52.742;13.650;2023-02-04T14:11:36;103290.53;;;2.63;100.00
18918;BME280;9591;52.742;13.650;2023-02-04T14:14:23;103294.88;;;2.63;100.00
18918;BME280;9591;52.742;13.650;2023-02-04T14:17:09;103289.38;;;2.55;100.00
18918;BME280;9591;52.742;13.650;2023-02-04T14:19:56;103282.03;;;2.47;100.00
18918;BME280;9591;52.742;13.650;2023-02-04T14:22:43;103297.09;;;2.52;100.00
18918;BME280;9591;52.742;13.650;2023-02-04T14:25:30;103290.72;;;2.46;100.00
18918;BME280;9591;52.742;13.650;2023-02-04T14:28:18;103298.16;;;2.37;100.00
18918;BME280;9591;52.742;13.650;2023-02-04T14:31:05;103301.41;;;2.31;100.00
18918;BME280;9591;52.742;13.650;2023-02-04T14:33:51;103304.16;;;2.34;100.00
18918;BME280;9591;52.742;13.650;2023-02-04T14:36:39;103297.34;;;2.58;100.00
18918;BME280;9591;52.742;13.650;2023-02-04T14:39:26;103311.56;;;2.87;98.84